createdAt,value
2023-04-19T00:01:20.029Z,100104.36
2023-04-19T00:03:47.406Z,100101.08
2023-04-19T00:06:15.612Z,100101.30
2023-04-19T00:08:43.152Z,100097.16
2023-04-19T00:11:10.352Z,100100.55
2023-04-19T00:13:38.215Z,100099.62
2023-04-19T00:16:05.988Z,100099.23
2023-04-19T00:18:34.335Z,100095.86
2023-04-19T00:21:02.504Z,100096.20
2023-04-19T00:23:29.961Z,100091.42
2023-04-19T00:25:57.148Z,100095.88
2023-04-19T00:28:24.973Z,100091.58
2023-04-19T00:30:52.242Z,100085.98
2023-04-19T00:33:19.858Z,100087.89
2023-04-19T00:35:49.063Z,100091.00
2023-04-19T00:38:16.313Z,100087.00
2023-04-19T00:40:46.332Z,100085.18
2023-04-19T00:43:17.046Z,100082.43
2023-04-19T00:45:44.403Z,100082.33
2023-04-19T00:48:13.259Z,100078.84
2023-04-19T00:50:41.156Z,100081.77
2023-04-19T00:53:08.823Z,100077.23
2023-04-19T00:55:38.356Z,100071.89
2023-04-19T00:58:06.016Z,100071.46
2023-04-19T01:00:34.235Z,100065.50
2023-04-19T01:03:02.041Z,100063.80
2023-04-19T01:05:29.873Z,100063.48
2023-04-19T01:07:57.291Z,100061.11
2023-04-19T01:10:24.557Z,100056.04
2023-04-19T01:12:51.831Z,100054.71
2023-04-19T01:15:19.225Z,100051.66
2023-04-19T01:17:49.800Z,100049.38
2023-04-19T01:20:16.995Z,100052.77
2023-04-19T01:22:45.257Z,100050.29
2023-04-19T01:25:13.144Z,100049.58
2023-04-19T01:27:44.076Z,100052.30
2023-04-19T01:30:11.544Z,100051.38
2023-04-19T01:32:39.036Z,100050.71
2023-04-19T01:35:06.550Z,100052.55
2023-04-19T01:37:37.060Z,100052.08
2023-04-19T01:40:06.710Z,100048.08
2023-04-19T01:42:35.484Z,100047.02
2023-04-19T01:45:03.604Z,100044.64
2023-04-19T01:47:32.294Z,100043.27
2023-04-19T01:49:59.665Z,100041.35
2023-04-19T01:52:26.971Z,100039.98
2023-04-19T01:54:54.343Z,100040.25
2023-04-19T01:57:21.637Z,100039.01
2023-04-19T01:59:49.903Z,100035.57
2023-04-19T02:02:17.324Z,100032.80
2023-04-19T02:04:44.628Z,100037.42
2023-04-19T02:07:11.939Z,100037.43
2023-04-19T02:09:39.200Z,100031.82
2023-04-19T02:12:06.770Z,100030.38
2023-04-19T02:14:34.024Z,100029.16
2023-04-19T02:17:01.271Z,100025.06
2023-04-19T02:19:28.538Z,100028.75
2023-04-19T02:21:57.696Z,100026.45
2023-04-19T02:24:25.094Z,100028.37
2023-04-19T02:26:53.500Z,100026.84
2023-04-19T02:29:21.290Z,100027.48
2023-04-19T02:31:48.561Z,100024.57
2023-04-19T02:34:16.235Z,100024.12
2023-04-19T02:36:43.916Z,100027.02
2023-04-19T02:39:12.002Z,100025.30
2023-04-19T02:41:39.557Z,100024.24
2023-04-19T02:44:08.206Z,100026.27
2023-04-19T02:46:35.800Z,100024.35
2023-04-19T02:49:03.189Z,100021.98
2023-04-19T02:51:30.979Z,100021.48
2023-04-19T02:53:58.610Z,100024.33
2023-04-19T02:56:26.191Z,100024.17
2023-04-19T02:58:54.822Z,100026.16
2023-04-19T03:01:22.179Z,100031.66
2023-04-19T03:03:50.594Z,100035.11
2023-04-19T03:06:18.541Z,100037.16
2023-04-19T03:08:46.307Z,100032.62
2023-04-19T03:11:15.268Z,100027.85
2023-04-19T03:13:43.154Z,100030.75
2023-04-19T03:16:10.443Z,100031.91
2023-04-19T03:18:37.807Z,100031.30
2023-04-19T03:21:05.220Z,100028.20
2023-04-19T03:23:38.510Z,100030.08
2023-04-19T03:26:05.793Z,100028.55
2023-04-19T03:28:38.425Z,100018.81
2023-04-19T03:31:18.133Z,100021.41
2023-04-19T03:33:45.827Z,100022.63
2023-04-19T03:36:13.529Z,100022.44
2023-04-19T03:38:44.104Z,100018.09
2023-04-19T03:41:20.162Z,100017.50
2023-04-19T03:43:48.426Z,100013.55
2023-04-19T03:46:15.894Z,100014.31
2023-04-19T03:48:43.681Z,100016.59
2023-04-19T03:51:10.925Z,100019.11
2023-04-19T03:53:38.141Z,100015.25
2023-04-19T03:56:05.469Z,100016.94
2023-04-19T03:58:33.719Z,100016.95
2023-04-19T04:01:06.363Z,100009.56
2023-04-19T04:03:34.835Z,100008.71
2023-04-19T04:06:03.594Z,100006.21
2023-04-19T04:08:31.336Z,100008.13
2023-04-19T04:10:58.642Z,100006.11
2023-04-19T04:13:25.977Z,100005.41
2023-04-19T04:16:03.087Z,100003.76
2023-04-19T04:18:31.813Z,100006.61
2023-04-19T04:21:00.451Z,100001.21
2023-04-19T04:23:29.453Z,99999.83
2023-04-19T04:25:59.054Z,99994.89
2023-04-19T04:28:29.837Z,99997.09
2023-04-19T04:30:57.593Z,99994.40
2023-04-19T04:33:26.243Z,99988.58
2023-04-19T04:35:54.312Z,99987.77
2023-04-19T04:38:24.882Z,99987.66
2023-04-19T04:40:53.987Z,99988.90
2023-04-19T04:43:22.344Z,99984.45
2023-04-19T04:45:49.656Z,99988.17
2023-04-19T04:48:19.207Z,99989.59
2023-04-19T04:50:46.480Z,99989.11
2023-04-19T04:53:14.061Z,99991.56
2023-04-19T04:55:43.493Z,99994.48
2023-04-19T04:58:12.706Z,99994.70
2023-04-19T05:00:54.765Z,99995.36
2023-04-19T05:03:22.541Z,99991.17
2023-04-19T05:05:55.023Z,99994.05
2023-04-19T05:08:27.745Z,99992.28
2023-04-19T05:10:58.987Z,99996.19
2023-04-19T05:13:27.804Z,99994.71
2023-04-19T05:15:55.375Z,99995.35
2023-04-19T05:18:24.453Z,99997.34
2023-04-19T05:20:53.256Z,99994.50
2023-04-19T05:23:23.947Z,99995.98
2023-04-19T05:25:51.465Z,99997.17
2023-04-19T05:28:18.788Z,100000.81
2023-04-19T05:30:56.451Z,100005.71
2023-04-19T05:33:25.794Z,100007.75
2023-04-19T05:35:53.085Z,100011.48
2023-04-19T05:38:20.614Z,100014.70
2023-04-19T05:40:48.425Z,100015.37
2023-04-19T05:43:15.879Z,100015.33
2023-04-19T05:45:43.233Z,100013.78
2023-04-19T05:48:10.592Z,100014.60
2023-04-19T05:50:43.494Z,100016.64
2023-04-19T05:53:32.891Z,100015.20
2023-04-19T05:56:00.329Z,100013.08
2023-04-19T05:58:27.590Z,100012.03
2023-04-19T06:00:55.293Z,100012.50
2023-04-19T06:03:22.962Z,100009.64
2023-04-19T06:05:50.488Z,100011.73
2023-04-19T06:08:18.924Z,100013.40
2023-04-19T06:10:54.871Z,100010.95
2023-04-19T06:13:25.837Z,100016.40
2023-04-19T06:15:53.283Z,100012.42
2023-04-19T06:18:20.766Z,100004.24
2023-04-19T06:20:48.039Z,99996.10
2023-04-19T06:23:15.516Z,99998.41
2023-04-19T06:25:43.050Z,99996.27
2023-04-19T06:28:11.282Z,99997.08
2023-04-19T06:30:38.523Z,99995.79
2023-04-19T06:33:05.855Z,99995.14
2023-04-19T06:35:32.973Z,100000.33
2023-04-19T06:38:00.276Z,99994.79
2023-04-19T06:40:29.149Z,99991.58
2023-04-19T06:42:56.571Z,99988.95
2023-04-19T06:45:24.333Z,99988.68
2023-04-19T06:47:51.947Z,99986.56
2023-04-19T06:50:19.251Z,99989.67
2023-04-19T06:52:46.727Z,99988.30
2023-04-19T06:55:13.994Z,99990.83
2023-04-19T06:57:42.248Z,99987.30
2023-04-19T07:00:10.318Z,99990.69
2023-04-19T07:02:37.785Z,99990.41
2023-04-19T07:05:07.795Z,99990.13
2023-04-19T07:07:37.661Z,99988.54
2023-04-19T07:10:05.551Z,99987.58
2023-04-19T07:12:32.824Z,99983.02
2023-04-19T07:15:00.155Z,99982.49
2023-04-19T07:17:27.734Z,99987.96
2023-04-19T07:19:54.939Z,99988.15
2023-04-19T07:22:22.404Z,99984.85
2023-04-19T07:24:52.154Z,99989.77
2023-04-19T07:27:19.379Z,99981.54
2023-04-19T07:29:46.868Z,99985.02
2023-04-19T07:32:14.957Z,99988.73
2023-04-19T07:34:43.199Z,99987.21
2023-04-19T07:37:10.921Z,99983.21
2023-04-19T07:39:41.227Z,99984.48
2023-04-19T07:42:08.476Z,99982.13
2023-04-19T07:44:35.880Z,99995.31
2023-04-19T07:47:04.877Z,99986.27
2023-04-19T07:49:34.091Z,99988.35
2023-04-19T07:52:04.283Z,99982.14
2023-04-19T07:54:31.951Z,99983.31
2023-04-19T07:56:59.120Z,99985.56
2023-04-19T07:59:26.623Z,99977.95
2023-04-19T08:01:53.955Z,99978.36
2023-04-19T08:04:23.005Z,99978.98
2023-04-19T08:06:50.802Z,99980.46
2023-04-19T08:09:18.386Z,99978.55
2023-04-19T08:11:45.722Z,99978.48
2023-04-19T08:14:28.443Z,99973.70
2023-04-19T08:19:30.415Z,99966.95
2023-04-19T08:21:57.716Z,99969.77
2023-04-19T08:24:24.991Z,99968.39
2023-04-19T08:26:55.018Z,99959.12
2023-04-19T08:29:22.902Z,99963.27
2023-04-19T08:31:50.239Z,99962.01
2023-04-19T08:34:17.562Z,99958.83
2023-04-19T08:36:51.873Z,99958.30
2023-04-19T08:39:32.892Z,99962.48
2023-04-19T08:42:11.058Z,99961.27
2023-04-19T08:45:05.669Z,99962.52
2023-04-19T08:47:34.318Z,99963.30
2023-04-19T08:52:56.000Z,99966.97
2023-04-19T08:55:26.325Z,99963.09
2023-04-19T08:57:53.530Z,99970.14
2023-04-19T09:00:21.126Z,99970.99
2023-04-19T09:02:49.398Z,99972.98
2023-04-19T09:05:18.136Z,99970.45
2023-04-19T09:07:46.248Z,99971.43
2023-04-19T09:10:14.462Z,99966.20
2023-04-19T09:12:42.037Z,99966.51
2023-04-19T09:15:09.551Z,99968.03
2023-04-19T09:17:37.237Z,99968.09
2023-04-19T09:20:05.326Z,99969.11
2023-04-19T09:22:33.957Z,99954.55
2023-04-19T09:27:33.330Z,99957.79
2023-04-19T09:30:01.049Z,99953.37
2023-04-19T09:32:29.086Z,99957.30
2023-04-19T09:34:57.097Z,99963.98
2023-04-19T09:40:00.264Z,99964.07
2023-04-19T09:47:45.359Z,99956.75
2023-04-19T09:50:22.712Z,99958.98
2023-04-19T09:52:52.180Z,99961.79
2023-04-19T09:57:49.865Z,99965.52
2023-04-19T10:00:17.143Z,99954.14
2023-04-19T10:02:44.918Z,99961.05
2023-04-19T10:05:20.417Z,99959.02
2023-04-19T10:07:49.430Z,99955.48
2023-04-19T10:10:20.716Z,99953.61
2023-04-19T10:15:23.754Z,99945.39
2023-04-19T10:17:51.065Z,99950.67
2023-04-19T10:20:30.627Z,99958.27
2023-04-19T10:22:58.038Z,99960.73
2023-04-19T10:25:32.424Z,99962.20
2023-04-19T10:28:00.374Z,99954.96
2023-04-19T10:30:27.715Z,99957.52
2023-04-19T10:32:56.676Z,99956.10
2023-04-19T10:35:30.547Z,99957.89
2023-04-19T10:38:03.952Z,99955.70
2023-04-19T10:40:50.089Z,99957.64
2023-04-19T10:43:17.863Z,99961.67
2023-04-19T10:45:46.071Z,99960.03
2023-04-19T10:48:35.237Z,99970.09
2023-04-19T10:51:03.202Z,99974.23
2023-04-19T10:53:43.211Z,99977.17
2023-04-19T10:56:10.502Z,99982.83
2023-04-19T10:58:56.679Z,99985.60
2023-04-19T11:01:38.397Z,99983.39
2023-04-19T11:04:06.349Z,99987.34
2023-04-19T11:06:34.029Z,99992.17
2023-04-19T11:09:05.619Z,99987.27
2023-04-19T11:11:36.916Z,99987.85
2023-04-19T11:14:05.344Z,99989.89
2023-04-19T11:16:45.405Z,99983.45
2023-04-19T11:19:17.026Z,99985.30
2023-04-19T11:21:45.497Z,99990.86
2023-04-19T11:24:12.738Z,99985.45
2023-04-19T11:26:41.125Z,99986.47
2023-04-19T11:29:08.668Z,99987.29
2023-04-19T11:31:36.058Z,99984.60
2023-04-19T11:34:03.364Z,99985.73
2023-04-19T11:36:31.790Z,99976.04
2023-04-19T11:38:59.019Z,99982.36
2023-04-19T11:41:26.213Z,99979.58
2023-04-19T11:43:53.440Z,99987.48
2023-04-19T11:46:20.577Z,99984.02
2023-04-19T11:48:53.870Z,99986.84
2023-04-19T11:51:21.479Z,99981.76
2023-04-19T11:53:48.630Z,99984.59
2023-04-19T11:56:16.539Z,99983.20
2023-04-19T11:58:45.158Z,99987.75
2023-04-19T12:01:13.970Z,99992.13
2023-04-19T12:03:44.466Z,99987.78
2023-04-19T12:06:16.014Z,99987.48
2023-04-19T12:08:43.744Z,99986.38
2023-04-19T12:11:11.150Z,99983.17
2023-04-19T12:13:40.619Z,99990.29
2023-04-19T12:16:08.379Z,99988.88
2023-04-19T12:18:49.956Z,99988.80
2023-04-19T12:21:30.924Z,99998.29
2023-04-19T12:23:59.301Z,100001.67
2023-04-19T12:26:29.325Z,100005.38
2023-04-19T12:28:57.179Z,99994.41
2023-04-19T12:31:24.952Z,99997.33
2023-04-19T12:33:52.776Z,99997.60
2023-04-19T12:36:20.993Z,99996.52
2023-04-19T12:38:48.546Z,99997.23
2023-04-19T12:41:15.933Z,99999.65
2023-04-19T12:43:43.395Z,100001.15
2023-04-19T12:46:11.185Z,100009.61
2023-04-19T12:48:39.498Z,100014.46
2023-04-19T12:51:07.159Z,100019.27
2023-04-19T12:53:34.699Z,100015.49
2023-04-19T12:56:02.091Z,100018.02
2023-04-19T12:58:29.685Z,100018.08
2023-04-19T13:00:59.587Z,100012.77
2023-04-19T13:03:32.628Z,100015.38
2023-04-19T13:06:00.707Z,100023.23
2023-04-19T13:08:41.440Z,100021.14
2023-04-19T13:11:13.968Z,100024.68
2023-04-19T13:13:41.493Z,100023.73
2023-04-19T13:16:08.944Z,100030.60
2023-04-19T13:18:36.952Z,100021.56
2023-04-19T13:21:06.082Z,100029.06
2023-04-19T13:23:36.209Z,100024.84
2023-04-19T13:26:04.533Z,100021.66
2023-04-19T13:28:35.580Z,100026.97
2023-04-19T13:31:04.729Z,100031.48
2023-04-19T13:33:33.795Z,100032.08
2023-04-19T13:36:01.182Z,100027.23
2023-04-19T13:38:29.665Z,100026.34
2023-04-19T13:40:57.255Z,100022.21
2023-04-19T13:43:24.684Z,100023.46
2023-04-19T13:45:55.150Z,100016.02
2023-04-19T13:48:23.090Z,100015.46
2023-04-19T13:50:52.322Z,100015.34
2023-04-19T13:53:19.953Z,100013.42
2023-04-19T13:55:47.463Z,100011.06
2023-04-19T13:58:15.810Z,100011.70
2023-04-19T14:00:43.599Z,100008.79
2023-04-19T14:03:11.672Z,100005.65
2023-04-19T14:05:40.350Z,100011.61
2023-04-19T14:08:07.963Z,100013.58
2023-04-19T14:10:36.068Z,100011.45
2023-04-19T14:13:05.081Z,100012.50
2023-04-19T14:15:32.716Z,100011.51
2023-04-19T14:18:00.424Z,100011.60
2023-04-19T14:20:29.381Z,100012.30
2023-04-19T14:22:59.029Z,100013.91
2023-04-19T14:25:26.888Z,100012.08
2023-04-19T14:27:54.489Z,100009.38
2023-04-19T14:30:21.929Z,100012.09
2023-04-19T14:32:50.006Z,100011.55
2023-04-19T14:35:17.578Z,100006.52
2023-04-19T14:37:44.957Z,100006.77
2023-04-19T14:40:12.558Z,100007.95
2023-04-19T14:42:40.447Z,100007.49
2023-04-19T14:45:08.334Z,100003.77
2023-04-19T14:47:36.831Z,100004.60
2023-04-19T14:50:04.670Z,100008.27
2023-04-19T14:52:32.123Z,100005.46
2023-04-19T14:54:59.848Z,100008.77
2023-04-19T14:57:27.783Z,100004.58
2023-04-19T14:59:58.621Z,100004.14
2023-04-19T15:02:26.698Z,100005.39
2023-04-19T15:04:54.841Z,100007.02
2023-04-19T15:07:22.530Z,100004.45
2023-04-19T15:09:50.152Z,99999.78
2023-04-19T15:12:17.916Z,100001.98
2023-04-19T15:14:45.617Z,100000.52
2023-04-19T15:17:13.287Z,100002.98
2023-04-19T15:19:40.869Z,100003.60
2023-04-19T15:22:08.492Z,100001.34
2023-04-19T15:24:35.945Z,99998.83
2023-04-19T15:27:03.984Z,100000.86
2023-04-19T15:29:31.499Z,99997.73
2023-04-19T15:31:58.981Z,99996.36
2023-04-19T15:34:26.523Z,99998.20
2023-04-19T15:36:54.117Z,99992.27
2023-04-19T15:39:21.551Z,99992.76
2023-04-19T15:41:49.168Z,99987.49
2023-04-19T15:44:16.718Z,99990.17
2023-04-19T15:46:44.282Z,99991.22
2023-04-19T15:49:12.288Z,99992.11
2023-04-19T15:51:40.508Z,99995.13
2023-04-19T15:54:07.937Z,99993.79
2023-04-19T15:56:37.510Z,99985.02
2023-04-19T15:59:04.945Z,99986.33
2023-04-19T16:01:32.692Z,99987.66
2023-04-19T16:04:00.655Z,99987.83
2023-04-19T16:06:29.126Z,99987.45
2023-04-19T16:08:56.759Z,99986.14
2023-04-19T16:11:25.128Z,99986.61
2023-04-19T16:13:52.847Z,99988.86
2023-04-19T16:16:20.439Z,99994.09
2023-04-19T16:18:48.352Z,99993.30
2023-04-19T16:21:15.985Z,99997.90
2023-04-19T16:23:43.623Z,99998.56
2023-04-19T16:26:11.185Z,100000.34
2023-04-19T16:28:38.726Z,100000.89
2023-04-19T16:31:06.240Z,100003.77
2023-04-19T16:33:34.052Z,100003.67
2023-04-19T16:36:01.608Z,100004.53
2023-04-19T16:38:29.442Z,100007.95
2023-04-19T16:40:58.929Z,100014.73
2023-04-19T16:43:26.456Z,100013.65
2023-04-19T16:45:53.968Z,100016.50
2023-04-19T16:48:21.500Z,100022.70
2023-04-19T16:50:49.052Z,100023.52
2023-04-19T16:53:16.406Z,100023.30
2023-04-19T16:55:44.247Z,100027.56
2023-04-19T16:58:11.640Z,100032.23
2023-04-19T17:00:39.028Z,100032.63
2023-04-19T17:03:08.976Z,100039.91
2023-04-19T17:05:36.984Z,100048.00
2023-04-19T17:08:04.579Z,100051.42
2023-04-19T17:10:32.620Z,100049.98
2023-04-19T17:13:00.139Z,100056.88
2023-04-19T17:15:27.761Z,100060.89
2023-04-19T17:17:55.686Z,100063.70
2023-04-19T17:20:23.293Z,100066.67
2023-04-19T17:22:51.389Z,100067.52
2023-04-19T17:25:19.961Z,100072.44
2023-04-19T17:27:49.415Z,100075.73
2023-04-19T17:30:16.826Z,100078.10
2023-04-19T17:32:45.235Z,100079.93
2023-04-19T17:35:13.032Z,100080.89
2023-04-19T17:37:40.719Z,100084.52
2023-04-19T17:40:08.774Z,100089.19
2023-04-19T17:42:39.084Z,100100.48
2023-04-19T17:45:10.652Z,100098.42
2023-04-19T17:47:39.381Z,100098.08
2023-04-19T17:50:07.874Z,100102.56
2023-04-19T17:52:35.710Z,100108.67
2023-04-19T17:55:04.661Z,100110.98
2023-04-19T17:57:33.717Z,100108.20
2023-04-19T18:00:05.776Z,100117.33
2023-04-19T18:02:37.362Z,100118.04
2023-04-19T18:05:05.296Z,100121.13
2023-04-19T18:07:34.628Z,100125.23
2023-04-19T18:10:03.837Z,100127.06
2023-04-19T18:24:11.295Z,100139.05
2023-04-19T18:26:40.999Z,100147.58
2023-04-19T18:29:10.339Z,100140.80
2023-04-19T18:31:39.361Z,100140.74
2023-04-19T18:34:09.961Z,100142.29
2023-04-19T18:36:41.080Z,100143.13
2023-04-19T18:39:10.649Z,100139.39
2023-04-19T18:41:39.702Z,100141.61
2023-04-19T18:46:40.917Z,100137.23
2023-04-19T18:49:10.502Z,100136.08
2023-04-19T18:51:39.509Z,100134.20
2023-04-19T18:54:08.431Z,100135.39
2023-04-19T18:59:09.129Z,100137.80
2023-04-19T19:01:38.446Z,100144.52
2023-04-19T19:04:28.392Z,100135.20
2023-04-19T19:07:00.205Z,100137.46
2023-04-19T19:09:34.726Z,100140.63
2023-04-19T19:12:03.829Z,100139.80
2023-04-19T19:14:36.249Z,100136.31
2023-04-19T19:17:06.306Z,100138.67
2023-04-19T19:19:35.818Z,100137.65
2023-04-19T19:22:12.056Z,100136.61
2023-04-19T19:24:48.110Z,100134.63
2023-04-19T19:27:17.068Z,100132.14
2023-04-19T19:29:47.431Z,100128.00
2023-04-19T19:32:16.429Z,100126.48
2023-04-19T19:34:54.414Z,100121.59
2023-04-19T19:37:24.304Z,100116.10
2023-04-19T19:39:56.108Z,100115.40
2023-04-19T19:42:26.136Z,100113.67
2023-04-19T19:44:55.760Z,100113.17
2023-04-19T19:47:25.188Z,100111.47
2023-04-19T19:50:45.620Z,100113.14
2023-04-19T19:52:45.176Z,100110.56
2023-04-19T19:55:14.455Z,100112.56
2023-04-19T20:02:56.150Z,100104.00
2023-04-19T20:05:25.692Z,100106.64
2023-04-19T20:08:01.088Z,100102.46
2023-04-19T20:10:31.909Z,100099.30
2023-04-19T20:13:01.868Z,100100.30
2023-04-19T20:15:30.584Z,100101.56
2023-04-19T20:17:59.290Z,100100.52
2023-04-19T20:20:28.062Z,100100.44
2023-04-19T20:22:56.802Z,100097.02
2023-04-19T20:25:25.593Z,100096.20
2023-04-19T20:27:54.894Z,100098.77
2023-04-19T20:30:23.494Z,100095.36
2023-04-19T20:32:52.233Z,100092.88
2023-04-19T20:35:21.574Z,100094.21
2023-04-19T20:37:51.412Z,100091.99
2023-04-19T20:40:19.997Z,100092.48
2023-04-19T20:42:49.253Z,100093.05
2023-04-19T20:45:17.946Z,100093.84
2023-04-19T20:47:47.531Z,100093.09
2023-04-19T20:50:16.314Z,100091.30
2023-04-19T20:52:44.990Z,100086.68
2023-04-19T20:55:14.107Z,100086.60
2023-04-19T20:57:42.844Z,100085.60
2023-04-19T21:00:12.080Z,100085.69
2023-04-19T21:02:41.706Z,100077.90
2023-04-19T21:05:11.215Z,100073.86
2023-04-19T21:07:39.820Z,100075.73
2023-04-19T21:10:08.776Z,100075.10
2023-04-19T21:12:37.561Z,100070.15
2023-04-19T21:15:06.862Z,100071.07
2023-04-19T21:17:35.741Z,100065.20
2023-04-19T21:20:11.366Z,100064.62
2023-04-19T21:22:40.534Z,100068.79
2023-04-19T21:25:09.674Z,100066.77
2023-04-19T21:27:39.056Z,100066.20
2023-04-19T21:30:08.053Z,100064.49
2023-04-19T21:32:37.460Z,100062.37
2023-04-19T21:35:06.479Z,100061.16
2023-04-19T21:37:36.104Z,100058.36
2023-04-19T21:40:05.238Z,100057.15
2023-04-19T21:42:34.160Z,100053.48
2023-04-19T21:45:02.848Z,100052.27
2023-04-19T21:47:32.380Z,100051.33
2023-04-19T21:50:01.178Z,100046.69
2023-04-19T21:52:30.354Z,100045.83
2023-04-19T21:55:00.154Z,100045.40
2023-04-19T21:57:31.222Z,100044.27
2023-04-19T22:00:00.006Z,100040.54
2023-04-19T22:02:29.177Z,100039.50
2023-04-19T22:05:00.775Z,100040.33
2023-04-19T22:07:31.416Z,100031.67
2023-04-19T22:10:03.212Z,100030.42
2023-04-19T22:12:36.256Z,100025.44
2023-04-19T22:15:09.627Z,100028.09
2023-04-19T22:17:38.788Z,100022.19
2023-04-19T22:20:09.648Z,100024.87
2023-04-19T22:22:39.176Z,100022.96
2023-04-19T22:25:08.090Z,100015.70
2023-04-19T22:27:37.090Z,100018.54
2023-04-19T22:30:06.026Z,100018.63
2023-04-19T22:32:34.914Z,100015.08
2023-04-19T22:35:04.515Z,100013.52
2023-04-19T22:37:33.249Z,100009.67
2023-04-19T22:40:01.988Z,100006.80
2023-04-19T22:42:31.279Z,99997.86
2023-04-19T22:44:59.974Z,99999.27
2023-04-19T22:47:30.035Z,100001.67
2023-04-19T22:49:58.826Z,99997.35
2023-04-19T22:52:28.188Z,99994.17
2023-04-19T22:54:56.767Z,99991.60
2023-04-19T22:57:25.728Z,99989.18
2023-04-19T22:59:54.468Z,99988.23
2023-04-19T23:02:23.107Z,99990.33
2023-04-19T23:04:52.722Z,99987.11
2023-04-19T23:07:22.274Z,99985.54
2023-04-19T23:09:51.323Z,99981.29
2023-04-19T23:12:19.968Z,99978.96
2023-04-19T23:14:48.645Z,99974.17
2023-04-19T23:17:17.690Z,99971.23
2023-04-19T23:19:46.845Z,99972.55
2023-04-19T23:22:15.845Z,99968.56
2023-04-19T23:24:44.716Z,99968.38
2023-04-19T23:27:13.512Z,99964.52
2023-04-19T23:29:42.154Z,99965.42
2023-04-19T23:32:10.925Z,99964.14
2023-04-19T23:34:39.839Z,99963.67
2023-04-19T23:37:09.178Z,99964.77
2023-04-19T23:39:37.931Z,99961.86
2023-04-19T23:42:06.639Z,99959.70
2023-04-19T23:44:35.919Z,99961.60
2023-04-19T23:47:04.554Z,99960.29
2023-04-19T23:49:34.202Z,99958.66
2023-04-19T23:52:03.336Z,99959.69
2023-04-19T23:54:31.966Z,99958.20
2023-04-19T23:57:02.200Z,99953.21
2023-04-19T23:59:33.228Z,99955.09
